createdAt,value
2022-10-01T00:01:06.894Z,11.1
2022-10-01T00:16:06.891Z,11.1
2022-10-01T00:31:06.863Z,11.1
2022-10-01T00:46:06.863Z,11.1
2022-10-01T01:01:06.826Z,11.1
2022-10-01T01:16:06.857Z,11.1
2022-10-01T01:31:06.812Z,11.2
2022-10-01T01:46:06.826Z,11.1
2022-10-01T02:01:06.797Z,10.9
2022-10-01T02:16:06.720Z,10.7
2022-10-01T02:31:06.764Z,10.3
2022-10-01T02:46:06.722Z,10
2022-10-01T03:01:06.661Z,9.8
2022-10-01T03:16:06.725Z,9.9
2022-10-01T03:31:06.690Z,10.1
2022-10-01T03:46:06.642Z,10
2022-10-01T04:01:06.609Z,9.7
2022-10-01T04:16:06.604Z,9.6
2022-10-01T04:31:06.639Z,9.5
2022-10-01T04:46:06.514Z,9.7
2022-10-01T05:01:06.586Z,9.5
2022-10-01T05:16:06.549Z,9.3
2022-10-01T05:31:06.543Z,9.5
2022-10-01T05:46:06.512Z,9.5
2022-10-01T06:01:06.471Z,9.6
2022-10-01T06:16:06.466Z,9.7
2022-10-01T06:31:06.431Z,9.8
2022-10-01T06:46:06.427Z,9.9
2022-10-01T07:01:06.521Z,10.2
2022-10-01T07:16:06.414Z,10.4
2022-10-01T07:31:06.365Z,10.7
2022-10-01T08:01:06.417Z,11.3
2022-10-01T08:16:06.406Z,11.5
2022-10-01T08:31:06.296Z,11.9
2022-10-01T08:46:06.326Z,12.5
2022-10-01T09:01:06.285Z,12.3
2022-10-01T09:16:06.279Z,11.9
2022-10-01T09:31:06.325Z,11.8
2022-10-01T09:46:06.232Z,11.8
2022-10-01T10:01:06.188Z,11.5
2022-10-01T10:16:06.201Z,11.7
2022-10-01T10:31:06.275Z,12
2022-10-01T10:46:06.121Z,11.8
2022-10-01T11:01:06.189Z,11.7
2022-10-01T11:16:06.090Z,11.8
2022-10-01T11:31:06.191Z,11.6
2022-10-01T11:46:06.098Z,11.5
2022-10-01T12:01:06.097Z,11.6
2022-10-01T12:16:06.063Z,11.7
2022-10-01T12:31:06.010Z,11.7
2022-10-01T12:46:05.981Z,11.9
2022-10-01T13:01:06.002Z,11.8
2022-10-01T13:16:05.928Z,11.7
2022-10-01T13:31:05.928Z,11.7
2022-10-01T13:46:05.941Z,11.4
2022-10-01T14:01:05.887Z,11.3
2022-10-01T14:16:05.917Z,11.3
2022-10-01T14:31:05.905Z,11.5
2022-10-01T14:46:05.853Z,11.4
2022-10-01T15:01:05.824Z,11.6
2022-10-01T15:16:05.807Z,11.7
2022-10-01T15:31:05.834Z,11.8
2022-10-01T15:46:05.792Z,11.7
2022-10-01T16:01:05.845Z,11.6
2022-10-01T16:16:05.734Z,11.6
2022-10-01T16:31:05.770Z,11.6
2022-10-01T16:46:05.731Z,11.6
2022-10-01T17:01:05.719Z,11.6
2022-10-01T17:16:05.685Z,11.6
2022-10-01T17:31:05.654Z,11.6
2022-10-01T17:46:05.645Z,11.7
2022-10-01T18:01:05.684Z,11.7
2022-10-01T18:16:05.590Z,11.8
2022-10-01T18:31:05.635Z,11.9
2022-10-01T18:46:05.547Z,11.9
2022-10-01T19:01:05.637Z,11.9
2022-10-01T19:16:05.511Z,11.9
2022-10-01T19:31:05.571Z,11.9
2022-10-01T19:46:05.437Z,11.9
2022-10-01T20:01:05.559Z,11.8
2022-10-01T20:16:05.497Z,11.8
2022-10-01T20:31:05.449Z,11.9
2022-10-01T20:46:05.438Z,12.1
2022-10-01T21:01:05.473Z,12.2
2022-10-01T21:16:05.397Z,12.1
2022-10-01T21:31:05.348Z,12.1
2022-10-01T21:46:05.400Z,12.1
2022-10-01T22:01:05.374Z,12.1
2022-10-01T22:16:05.343Z,12.1
2022-10-01T22:31:05.280Z,12.2
2022-10-01T22:46:05.248Z,12.3
2022-10-01T23:01:05.261Z,12.2
2022-10-01T23:16:05.272Z,12.2
2022-10-01T23:31:05.203Z,12.2
2022-10-01T23:46:05.247Z,12.2
